createdAt,value
2023-04-16T00:00:50.523Z,68.19
2023-04-16T00:06:07.552Z,64.49
2023-04-16T00:11:10.763Z,61.42
2023-04-16T00:16:14.127Z,55.63
2023-04-16T00:21:17.283Z,55.63
2023-04-16T00:26:20.825Z,58.14
2023-04-16T00:31:32.604Z,66.90
2023-04-16T00:36:35.818Z,68.64
2023-04-16T00:41:39.016Z,64.87
2023-04-16T00:46:46.259Z,61.97
2023-04-16T00:51:49.543Z,60.40
2023-04-16T00:56:52.743Z,55.16
2023-04-16T01:01:56.124Z,54.38
2023-04-16T01:07:00.847Z,56.90
2023-04-16T01:12:04.018Z,59.26
2023-04-16T01:17:07.125Z,69.59
2023-04-16T01:22:10.235Z,69.57
2023-04-16T01:27:13.334Z,62.87
2023-04-16T01:32:16.685Z,60.72
2023-04-16T01:37:19.866Z,56.00
2023-04-16T01:42:22.888Z,55.21
2023-04-16T01:47:26.288Z,57.82
2023-04-16T01:52:29.476Z,59.83
2023-04-16T01:57:32.580Z,70.85
2023-04-16T02:02:36.839Z,69.18
2023-04-16T02:07:40.025Z,64.31
2023-04-16T02:12:43.033Z,61.72
2023-04-16T02:17:46.916Z,60.44
2023-04-16T02:22:50.061Z,54.93
2023-04-16T02:27:53.177Z,55.08
2023-04-16T02:32:56.201Z,57.76
2023-04-16T02:38:00.007Z,68.34
2023-04-16T02:43:03.603Z,67.39
2023-04-16T02:48:09.016Z,62.88
2023-04-16T02:53:12.174Z,60.70
2023-04-16T02:58:15.721Z,56.18
2023-04-16T03:03:19.047Z,56.23
2023-04-16T03:08:22.326Z,58.98
2023-04-16T03:13:25.624Z,67.23
2023-04-16T03:18:28.728Z,68.40
2023-04-16T03:23:32.343Z,65.00
2023-04-16T03:28:35.558Z,62.28
2023-04-16T03:33:38.603Z,60.24
2023-04-16T03:38:41.667Z,54.88
2023-04-16T03:43:45.002Z,55.29
2023-04-16T03:48:48.092Z,58.13
2023-04-16T03:53:51.203Z,66.30
2023-04-16T03:58:54.418Z,68.28
2023-04-16T04:03:57.592Z,64.87
2023-04-16T04:09:00.863Z,62.39
2023-04-16T04:14:05.424Z,60.92
2023-04-16T04:19:08.791Z,56.01
2023-04-16T04:24:12.220Z,56.14
2023-04-16T04:29:15.498Z,58.54
2023-04-16T04:34:19.454Z,67.69
2023-04-16T04:39:23.151Z,68.56
2023-04-16T04:44:26.248Z,65.20
2023-04-16T04:49:30.801Z,62.30
2023-04-16T04:54:34.311Z,60.94
2023-04-16T04:59:37.407Z,57.16
2023-04-16T05:04:40.462Z,56.22
2023-04-16T05:09:43.625Z,57.76
2023-04-16T05:14:46.846Z,60.36
2023-04-16T05:19:49.938Z,69.82
2023-04-16T05:24:53.062Z,68.77
2023-04-16T05:29:56.396Z,65.02
2023-04-16T05:34:59.365Z,62.62
2023-04-16T05:40:02.879Z,61.43
2023-04-16T05:45:07.182Z,59.49
2023-04-16T05:50:11.347Z,54.02
2023-04-16T05:55:14.504Z,55.62
2023-04-16T06:00:18.233Z,59.43
2023-04-16T06:05:21.526Z,68.21
2023-04-16T06:10:24.700Z,68.96
2023-04-16T06:15:28.090Z,64.53
2023-04-16T06:20:31.624Z,61.32
2023-04-16T06:25:34.827Z,55.56
2023-04-16T06:30:37.928Z,55.24
2023-04-16T06:35:41.095Z,57.93
2023-04-16T06:40:44.345Z,66.76
2023-04-16T06:45:47.375Z,68.22
2023-04-16T06:50:51.201Z,63.05
2023-04-16T06:55:54.293Z,61.25
2023-04-16T07:00:57.664Z,56.20
2023-04-16T07:06:00.922Z,55.80
2023-04-16T07:11:04.128Z,59.24
2023-04-16T07:16:07.360Z,65.92
2023-04-16T07:21:10.949Z,66.24
2023-04-16T07:26:14.146Z,62.98
2023-04-16T07:31:17.613Z,56.19
2023-04-16T07:36:21.082Z,54.75
2023-04-16T07:41:24.729Z,56.59
2023-04-16T07:46:36.138Z,60.33
2023-04-16T07:51:47.398Z,67.71
2023-04-16T07:56:50.637Z,66.56
2023-04-16T08:01:54.603Z,61.97
2023-04-16T08:06:57.753Z,57.37
2023-04-16T08:12:01.791Z,55.20
2023-04-16T08:17:05.008Z,58.20
2023-04-16T08:22:08.297Z,59.95
2023-04-16T08:27:19.347Z,61.72
2023-04-16T08:32:23.548Z,69.58
2023-04-16T08:37:27.043Z,65.64
2023-04-16T08:42:41.653Z,60.69
2023-04-16T08:47:52.945Z,55.59
2023-04-16T08:53:01.008Z,54.96
2023-04-16T08:58:19.525Z,57.67
2023-04-16T09:03:23.362Z,63.38
2023-04-16T09:08:29.800Z,69.25
2023-04-16T09:13:33.122Z,65.14
2023-04-16T09:18:36.234Z,60.72
2023-04-16T09:23:40.266Z,54.02
2023-04-16T09:28:49.584Z,54.18
2023-04-16T09:34:07.048Z,56.88
2023-04-16T09:39:22.558Z,58.56
2023-04-16T09:44:39.736Z,59.54
2023-04-16T09:49:43.673Z,66.44
2023-04-16T09:54:51.317Z,66.26
2023-04-16T10:00:03.041Z,61.72
2023-04-16T10:05:06.993Z,56.14
2023-04-16T10:10:10.784Z,55.27
2023-04-16T10:15:14.082Z,57.08
2023-04-16T10:20:19.060Z,59.61
2023-04-16T10:25:23.593Z,66.43
2023-04-16T10:30:28.227Z,67.62
2023-04-16T10:35:31.630Z,62.93
2023-04-16T10:40:35.697Z,55.28
2023-04-16T10:45:38.980Z,54.54
2023-04-16T10:50:42.081Z,58.24
2023-04-16T10:55:58.830Z,59.10
2023-04-16T11:01:13.535Z,66.66
2023-04-16T11:06:24.904Z,65.30
2023-04-16T11:11:39.685Z,61.46
2023-04-16T11:16:42.965Z,55.15
2023-04-16T11:21:46.701Z,55.63
2023-04-16T11:26:52.422Z,58.89
2023-04-16T11:31:55.794Z,60.68
2023-04-16T11:36:59.501Z,67.33
2023-04-16T11:42:02.646Z,68.00
2023-04-16T11:47:07.942Z,63.29
2023-04-16T11:52:11.402Z,61.27
2023-04-16T11:57:28.039Z,55.46
2023-04-16T12:02:51.655Z,55.50
2023-04-16T12:07:56.429Z,57.04
2023-04-16T12:13:18.054Z,59.17
2023-04-16T12:18:24.505Z,66.81
2023-04-16T12:23:31.016Z,66.74
2023-04-16T12:28:40.392Z,62.18
2023-04-16T12:33:43.394Z,54.70
2023-04-16T12:38:46.765Z,53.44
2023-04-16T12:43:49.931Z,55.30
2023-04-16T12:48:52.996Z,58.00
2023-04-16T12:53:56.139Z,60.50
2023-04-16T12:58:59.271Z,67.05
2023-04-16T13:04:02.611Z,67.60
2023-04-16T13:09:06.260Z,62.71
2023-04-16T13:14:09.368Z,55.88
2023-04-16T13:19:12.785Z,53.75
2023-04-16T13:24:16.403Z,54.72
2023-04-16T13:29:20.564Z,57.43
2023-04-16T13:34:23.948Z,59.64
2023-04-16T13:39:27.367Z,60.99
2023-04-16T13:44:30.770Z,67.76
2023-04-16T13:49:36.145Z,67.31
2023-04-16T13:54:40.768Z,62.58
2023-04-16T13:59:44.285Z,60.49
2023-04-16T14:04:47.737Z,52.52
2023-04-16T14:09:50.914Z,50.80
2023-04-16T14:14:54.132Z,52.07
2023-04-16T14:19:57.332Z,54.42
2023-04-16T14:25:01.355Z,56.68
2023-04-16T14:30:06.509Z,57.98
2023-04-16T14:35:10.449Z,59.55
2023-04-16T14:40:13.793Z,66.98
2023-04-16T14:45:17.062Z,66.80
2023-04-16T14:50:20.112Z,62.08
2023-04-16T14:55:23.397Z,54.83
2023-04-16T15:00:28.964Z,53.68
2023-04-16T15:05:32.349Z,55.70
2023-04-16T15:10:35.660Z,56.88
2023-04-16T15:15:38.794Z,59.25
2023-04-16T15:20:42.180Z,61.47
2023-04-16T15:25:45.394Z,68.35
2023-04-16T15:30:48.637Z,67.96
2023-04-16T15:35:51.927Z,63.76
2023-04-16T15:40:55.052Z,56.71
2023-04-16T15:45:58.285Z,54.61
2023-04-16T15:51:01.471Z,57.36
2023-04-16T15:56:05.076Z,58.89
2023-04-16T16:01:08.888Z,60.05
2023-04-16T16:06:11.982Z,67.52
2023-04-16T16:11:15.092Z,68.89
2023-04-16T16:16:18.230Z,63.72
2023-04-16T16:21:21.409Z,56.49
2023-04-16T16:26:24.718Z,54.25
2023-04-16T16:31:27.947Z,55.70
2023-04-16T16:36:32.671Z,58.18
2023-04-16T16:41:42.081Z,59.78
2023-04-16T16:46:45.413Z,67.39
2023-04-16T16:51:48.972Z,67.61
2023-04-16T16:56:53.390Z,65.12
2023-04-16T17:01:56.563Z,54.23
2023-04-16T17:07:00.023Z,52.46
2023-04-16T17:12:03.332Z,54.23
2023-04-16T17:17:06.531Z,56.33
2023-04-16T17:22:10.835Z,58.03
2023-04-16T17:27:14.183Z,59.66
2023-04-16T17:32:17.379Z,68.33
2023-04-16T17:37:20.502Z,69.07
2023-04-16T17:42:24.932Z,63.53
2023-04-16T17:47:28.313Z,56.27
2023-04-16T17:52:31.877Z,54.32
2023-04-16T17:57:35.386Z,55.92
2023-04-16T18:02:41.101Z,58.16
2023-04-16T18:07:44.454Z,59.46
2023-04-16T18:12:47.985Z,67.55
2023-04-16T18:17:51.255Z,69.27
2023-04-16T18:22:54.602Z,64.22
2023-04-16T18:27:59.052Z,60.53
2023-04-16T18:38:08.356Z,53.12
2023-04-16T18:43:11.533Z,55.13
2023-04-16T18:48:14.636Z,57.23
2023-04-16T18:53:17.963Z,59.30
2023-04-16T18:58:21.888Z,67.41
2023-04-16T19:03:27.525Z,68.64
2023-04-16T19:08:31.052Z,63.70
2023-04-16T19:13:34.150Z,60.33
2023-04-16T19:18:38.630Z,54.19
2023-04-16T19:23:41.704Z,53.57
2023-04-16T19:28:46.226Z,55.97
2023-04-16T19:33:49.343Z,58.14
2023-04-16T19:38:52.686Z,60.15
2023-04-16T19:43:55.874Z,68.18
2023-04-16T19:48:59.094Z,69.47
2023-04-16T19:54:02.497Z,64.41
2023-04-16T19:59:05.617Z,61.15
2023-04-16T20:04:08.923Z,55.24
2023-04-16T20:09:12.719Z,54.29
2023-04-16T20:14:16.038Z,56.08
2023-04-16T20:19:19.772Z,58.78
2023-04-16T20:24:24.335Z,67.35
2023-04-16T20:29:27.818Z,69.03
2023-04-16T20:34:31.122Z,63.23
2023-04-16T20:39:34.454Z,55.45
2023-04-16T20:44:41.643Z,53.82
2023-04-16T20:49:46.429Z,55.61
2023-04-16T20:54:52.270Z,57.70
2023-04-16T20:59:56.582Z,59.47
2023-04-16T21:04:59.701Z,70.25
2023-04-16T21:10:03.034Z,68.56
2023-04-16T21:15:07.668Z,62.66
2023-04-16T21:20:13.678Z,54.60
2023-04-16T21:25:17.160Z,53.58
2023-04-16T21:30:20.246Z,55.73
2023-04-16T21:35:23.352Z,57.67
2023-04-16T21:40:26.985Z,59.74
2023-04-16T21:45:31.106Z,70.25
2023-04-16T21:50:34.146Z,68.80
2023-04-16T21:55:38.040Z,62.33
2023-04-16T22:00:41.188Z,55.89
2023-04-16T22:05:46.143Z,54.65
2023-04-16T22:10:49.209Z,57.13
2023-04-16T22:15:53.741Z,59.23
2023-04-16T22:20:56.855Z,68.37
2023-04-16T22:26:00.051Z,69.42
2023-04-16T22:31:03.270Z,64.69
2023-04-16T22:36:07.108Z,61.74
2023-04-16T22:41:10.181Z,56.25
2023-04-16T22:46:13.376Z,55.22
2023-04-16T22:51:16.709Z,56.71
2023-04-16T22:56:20.378Z,59.11
2023-04-16T23:01:24.830Z,67.91
2023-04-16T23:06:28.084Z,69.32
2023-04-16T23:11:31.382Z,64.91
2023-04-16T23:16:34.404Z,61.71
2023-04-16T23:21:37.423Z,55.32
2023-04-16T23:26:40.604Z,54.75
2023-04-16T23:31:43.654Z,56.54
2023-04-16T23:36:46.826Z,58.26
2023-04-16T23:41:49.820Z,69.87
2023-04-16T23:46:53.188Z,68.51
2023-04-16T23:51:56.264Z,61.72
2023-04-16T23:56:59.339Z,53.33
